Flight Track Log - Related Links

Times and Time Zones

All times are in EDT time to prevent confusion due to time zone crossing. See the UPS1121 flight status page for this flight to view local times or setup timezone preferences in your user account.

Time Position Orientation Groundspeed Altitude Reporting Facility
EDT Latitude Longitude Course Direction KTS MPH feet Rate Location/Type
Fri 09:37:02 PM 42.7339 -73.8081 163° South 152 175 1,900  Level Boston Center
Fri 09:37:56 PM 42.6906 -73.7903 163° South 206 237 4,600 2,579 Climbing Boston Center
Fri 09:38:56 PM 42.6597 -73.7331 126° Southeast 212 244 6,800 2,818 Climbing Boston Center
Fri 09:40:08 PM 42.6025 -73.6333 128° Southeast 260 299 10,800 1,909 Climbing Boston Center
Fri 09:41:08 PM 42.5369 -73.5250 129° Southeast 323 372 11,000 109 Climbing Boston Center
Fri 09:41:58 PM 42.4794 -73.4311 130° Southeast 348 400 11,000  Level Boston Center
Fri 09:43:08 PM 42.4072 -73.3314 134° Southeast 345 397 11,000  Level Boston Center
Fri 09:43:54 PM 42.3494 -73.2547 136° Southeast 343 395 11,000 -170 Level Boston Center
Fri 09:44:54 PM 42.2728 -73.2089 156° South 299 344 10,700 -896 Descending Boston Center
Fri 09:46:08 PM 42.1958 -73.1631 156° South 291 335 9,000 -1,512 Descending Boston Center
Fri 09:47:01 PM 42.1150 -73.1258 161° South 285 328 7,500 -1,444 Descending Boston Center
Fri 09:47:56 PM 42.0483 -73.0942 161° South 272 313 6,400 -1,138 Descending Boston Center
Fri 09:48:57 PM 41.9797 -73.0600 160° South 261 300 5,300 -1,041 Descending Boston Center
Fri 09:49:57 PM 41.9153 -73.0317 162° South 252 290 4,300 -916 Descending Boston Center
Fri 09:51:08 PM 41.8531 -72.9808 149° Southeast 239 275 3,300 -639 Descending Boston Center
Fri 09:51:59 PM 41.8200 -72.9386 136° Southeast 186 214 3,000 -162 Descending Boston Center
Fri 09:52:59 PM 41.8078 -72.8831 106° East 163 188 3,000 -50 Level Boston Center
Fri 09:54:00 PM 41.8308 -72.8331 58° Northeast 168 193 2,900 -512 Descending Boston Center
Fri 09:55:08 PM 41.8683 -72.7803 46° Northeast 139 160 1,900 -843 Descending Boston Center
Fri 09:56:01 PM 41.8956 -72.7497 40° Northeast 147 169 1,200 -684 Descending Boston Center
Fri 09:57:02 PM 41.9167 -72.7192 47° Northeast 117 135 600 -590 Descending Boston Center
Fri 09:59:00 PM 41.9333 -72.6833 56° Northeast  Level FlightAware Approximate
Fri 10:06:00 PM 41.9392 -72.6834 56° Northeast  Level Estimated

Login

Don't have an account? Register now (free) for customized features, flight alerts, and more!